CheckWX is a tool to help pilots better visualize weather data.  It is not intended as a substitute for an official pre-flight weather briefing.

18:55:59 UTC

KHJO METAR
Hanford Municipal Airport
Hanford, California, USA
Current

1 hour ago

KHJO 251753Z AUTO 31006KT 10SM CLR 32/13 A2998 RMK AO2 SLP150 T03220128 10322 20200 50002
Observed
Aug-25 @ 17:53 UTC
Wind
  • 310° at 6 KTS
Visibility
10 SM
Flight Rules
VFR
Cloud Levels
  • Clear skies
Temperature
32°C / 90°F
Dewpoint
13°C / 55°F
Humidity
31%
Altimeter
29.98" Hg
Pressure
1015.22 hPa
Previous

2 hours ago

KHJO 251653Z AUTO 00000KT 10SM CLR 30/13 A2999 RMK AO2 SLP153 T03000128
Observed
Aug-25 @ 16:53 UTC
Visibility
10 SM
Flight Rules
VFR
Cloud Levels
  • Clear skies
Temperature
30°C / 86°F
Dewpoint
13°C / 55°F
Humidity
35%
Altimeter
29.99" Hg
Pressure
1015.62 hPa
Previous

3 hours ago

KHJO 251553Z AUTO 00000KT 10SM CLR 27/13 A2998 RMK AO2 SLP151 T02720128
Observed
Aug-25 @ 15:53 UTC
Visibility
10 SM
Flight Rules
VFR
Cloud Levels
  • Clear skies
Temperature
27°C / 81°F
Dewpoint
13°C / 55°F
Heat Index
27°C / 81°F
Humidity
42%
Altimeter
29.98" Hg
Pressure
1015.22 hPa